createdAt,value
2023-08-04T00:00:29.556Z,99341.91
2023-08-04T00:01:01.142Z,99339.78
2023-08-04T00:01:32.626Z,99342.53
2023-08-04T00:02:04.285Z,99340.22
2023-08-04T00:02:35.952Z,99340.84
2023-08-04T00:03:07.661Z,99336.81
2023-08-04T00:03:39.168Z,99339.88
2023-08-04T00:04:10.697Z,99338.06
2023-08-04T00:04:42.182Z,99340.34
2023-08-04T00:05:13.692Z,99342.41
2023-08-04T00:05:45.134Z,99344.03
2023-08-04T00:06:16.521Z,99344.34
2023-08-04T00:06:47.913Z,99344.34
2023-08-04T00:07:19.356Z,99341.91
2023-08-04T00:07:50.811Z,99341.41
2023-08-04T00:08:22.343Z,99341.09
2023-08-04T00:08:53.794Z,99341.28
2023-08-04T00:09:25.215Z,99344.16
2023-08-04T00:09:56.667Z,99345.28
2023-08-04T00:10:28.080Z,99346.75
2023-08-04T00:10:59.470Z,99346.88
2023-08-04T00:11:30.885Z,99343.34
2023-08-04T00:12:02.372Z,99346.38
2023-08-04T00:12:33.840Z,99345.41
2023-08-04T00:13:05.297Z,99342.84
2023-08-04T00:13:36.768Z,99347.06
2023-08-04T00:14:08.227Z,99342.53
2023-08-04T00:14:39.662Z,99345.09
2023-08-04T00:15:11.092Z,99346.19
2023-08-04T00:15:42.495Z,99346.38
2023-08-04T00:16:13.998Z,99353.97
2023-08-04T00:16:45.453Z,99342.53
2023-08-04T00:17:16.895Z,99346.38
2023-08-04T00:17:48.388Z,99345.97
2023-08-04T00:18:19.887Z,99356.09
2023-08-04T00:18:51.296Z,99351.44
2023-08-04T00:19:22.727Z,99347.00
2023-08-04T00:19:54.181Z,99355.47
2023-08-04T00:20:25.610Z,99348.41
2023-08-04T00:20:57.029Z,99352.47
2023-08-04T00:21:28.618Z,99352.66
2023-08-04T00:22:00.190Z,99357.81
2023-08-04T00:22:31.706Z,99356.50
2023-08-04T00:23:03.201Z,99352.75
2023-08-04T00:23:34.681Z,99354.09
2023-08-04T00:24:06.039Z,99357.31
2023-08-04T00:24:37.496Z,99356.50
2023-08-04T00:25:08.876Z,99360.84
2023-08-04T00:25:40.279Z,99355.88
2023-08-04T00:26:11.662Z,99356.50
2023-08-04T00:26:43.104Z,99356.50
2023-08-04T00:27:14.649Z,99361.97
2023-08-04T00:27:46.135Z,99356.50
2023-08-04T00:28:17.596Z,99353.47
2023-08-04T00:28:49.002Z,99362.47
2023-08-04T00:29:20.465Z,99355.88
2023-08-04T00:29:51.896Z,99356.19
2023-08-04T00:30:23.313Z,99352.34
2023-08-04T00:30:54.743Z,99351.03
2023-08-04T00:31:26.178Z,99356.19
2023-08-04T00:31:57.696Z,99355.56
2023-08-04T00:32:29.224Z,99353.66
2023-08-04T00:33:00.815Z,99360.72
2023-08-04T00:33:32.293Z,99356.06
2023-08-04T00:34:03.679Z,99357.19
2023-08-04T00:34:35.091Z,99362.16
2023-08-04T00:35:06.497Z,99354.28
2023-08-04T00:35:37.969Z,99360.22
2023-08-04T00:36:09.452Z,99363.25
2023-08-04T00:36:40.948Z,99364.06
2023-08-04T00:37:12.394Z,99362.78
2023-08-04T00:37:43.792Z,99363.56
2023-08-04T00:38:15.221Z,99364.06
2023-08-04T00:38:46.630Z,99360.53
2023-08-04T00:39:18.111Z,99355.88
2023-08-04T00:39:49.491Z,99362.78
2023-08-04T00:40:20.885Z,99355.38
2023-08-04T00:40:52.297Z,99356.00
2023-08-04T00:41:23.805Z,99356.00
2023-08-04T00:41:55.595Z,99366.41
2023-08-04T00:42:27.103Z,99365.81
2023-08-04T00:42:58.531Z,99360.66
2023-08-04T00:43:30.006Z,99365.09
2023-08-04T00:44:01.495Z,99364.19
2023-08-04T00:44:32.943Z,99357.72
2023-08-04T00:45:04.342Z,99375.53
2023-08-04T00:45:35.820Z,99363.16
2023-08-04T00:46:07.360Z,99362.69
2023-08-04T00:46:38.844Z,99364.28
2023-08-04T00:47:10.284Z,99364.78
2023-08-04T00:47:41.810Z,99366.53
2023-08-04T00:48:13.227Z,99362.19
2023-08-04T00:48:44.659Z,99358.34
2023-08-04T00:49:16.103Z,99360.56
2023-08-04T00:49:47.664Z,99363.28
2023-08-04T00:50:19.085Z,99371.97
2023-08-04T00:50:50.635Z,99373.72
2023-08-04T00:51:22.073Z,99370.69
2023-08-04T00:51:53.623Z,99370.69
2023-08-04T00:52:25.081Z,99373.72
2023-08-04T00:52:56.600Z,99369.38
2023-08-04T00:53:28.029Z,99372.09
2023-08-04T00:53:59.455Z,99367.44
2023-08-04T00:54:30.892Z,99374.53
2023-08-04T00:55:02.339Z,99374.03
2023-08-04T00:55:33.887Z,99379.00
2023-08-04T00:56:05.372Z,99376.94
2023-08-04T00:56:36.788Z,99367.16
2023-08-04T00:57:08.218Z,99369.38
2023-08-04T00:57:39.683Z,99370.19
2023-08-04T00:58:11.139Z,99370.81
2023-08-04T00:58:42.520Z,99371.91
2023-08-04T00:59:14.016Z,99375.44
2023-08-04T00:59:45.522Z,99380.09
2023-08-04T01:00:17.014Z,99382.84
2023-08-04T01:00:48.501Z,99367.56
2023-08-04T01:01:19.936Z,99372.53
2023-08-04T01:01:51.532Z,99374.66
2023-08-04T01:02:23.166Z,99376.56
2023-08-04T01:02:54.909Z,99379.00
2023-08-04T01:03:26.458Z,99373.03
2023-08-04T01:03:57.945Z,99382.41
2023-08-04T01:04:29.451Z,99372.72
2023-08-04T01:05:03.393Z,99377.50
2023-08-04T01:05:35.942Z,99377.31
2023-08-04T01:06:07.421Z,99377.63
2023-08-04T01:06:38.856Z,99378.41
2023-08-04T01:07:10.226Z,99379.72
2023-08-04T01:07:41.608Z,99376.38
2023-08-04T01:08:13.006Z,99377.19
2023-08-04T01:08:44.428Z,99380.22
2023-08-04T01:09:15.906Z,99380.22
2023-08-04T01:09:47.324Z,99383.75
2023-08-04T01:10:18.723Z,99381.03
2023-08-04T01:10:50.136Z,99380.72
2023-08-04T01:11:21.755Z,99378.50
2023-08-04T01:11:53.186Z,99383.34
2023-08-04T01:12:24.560Z,99380.91
2023-08-04T01:12:55.999Z,99378.19
2023-08-04T01:13:27.440Z,99383.84
2023-08-04T01:13:58.873Z,99376.75
2023-08-04T01:14:30.310Z,99384.25
2023-08-04T01:15:01.808Z,99381.03
2023-08-04T01:15:33.180Z,99378.31
2023-08-04T01:16:04.900Z,99379.72
2023-08-04T01:16:36.353Z,99386.50
2023-08-04T01:17:07.761Z,99385.38
2023-08-04T01:17:39.244Z,99387.91
2023-08-04T01:18:10.712Z,99384.88
2023-08-04T01:18:42.164Z,99386.19
2023-08-04T01:19:13.659Z,99384.56
2023-08-04T01:19:45.225Z,99390.03
2023-08-04T01:20:16.577Z,99383.75
2023-08-04T01:20:47.998Z,99383.25
2023-08-04T01:21:19.533Z,99384.88
2023-08-04T01:21:51.392Z,99383.25
2023-08-04T01:22:22.905Z,99388.84
2023-08-04T01:22:54.388Z,99384.50
2023-08-04T01:23:25.836Z,99393.81
2023-08-04T01:23:57.310Z,99385.31
2023-08-04T01:24:28.826Z,99390.97
2023-08-04T01:25:00.216Z,99394.19
2023-08-04T01:25:31.651Z,99386.41
2023-08-04T01:26:03.065Z,99385.31
2023-08-04T01:26:34.531Z,99391.25
2023-08-04T01:27:05.992Z,99389.16
2023-08-04T01:27:37.454Z,99390.56
2023-08-04T01:28:08.905Z,99388.66
2023-08-04T01:28:40.392Z,99382.88
2023-08-04T01:29:11.836Z,99393.81
2023-08-04T01:29:43.267Z,99387.03
2023-08-04T01:30:14.753Z,99389.97
2023-08-04T01:30:46.182Z,99395.72
2023-08-04T01:31:17.650Z,99391.38
2023-08-04T01:31:49.179Z,99391.38
2023-08-04T01:32:20.831Z,99397.78
2023-08-04T01:32:52.355Z,99392.00
2023-08-04T01:33:23.814Z,99394.91
2023-08-04T01:33:55.248Z,99399.06
2023-08-04T01:34:26.695Z,99396.53
2023-08-04T01:34:58.138Z,99399.88
2023-08-04T01:35:29.541Z,99402.91
2023-08-04T01:36:00.986Z,99396.97
2023-08-04T01:36:32.445Z,99403.72
2023-08-04T01:37:03.845Z,99401.63
2023-08-04T01:37:35.374Z,99410.28
2023-08-04T01:38:07.133Z,99411.44
2023-08-04T01:38:38.541Z,99405.47
2023-08-04T01:39:10.025Z,99407.25
2023-08-04T01:39:41.427Z,99405.34
2023-08-04T01:40:12.857Z,99406.75
2023-08-04T01:40:44.283Z,99409.19
2023-08-04T01:41:15.694Z,99399.72
2023-08-04T01:41:47.307Z,99411.44
2023-08-04T01:42:18.938Z,99403.84
2023-08-04T01:42:50.492Z,99409.00
2023-08-04T01:43:21.909Z,99404.34
2023-08-04T01:43:53.379Z,99405.97
2023-08-04T01:44:24.799Z,99410.44
2023-08-04T01:44:56.221Z,99413.34
2023-08-04T01:45:27.673Z,99410.63
2023-08-04T01:45:59.218Z,99408.72
2023-08-04T01:46:30.705Z,99411.09
2023-08-04T01:47:02.185Z,99415.75
2023-08-04T01:47:33.600Z,99415.75
2023-08-04T01:48:05.071Z,99413.97
2023-08-04T01:48:36.487Z,99412.84
2023-08-04T01:49:07.927Z,99414.47
2023-08-04T01:49:39.379Z,99419.13
2023-08-04T01:50:10.911Z,99416.41
2023-08-04T01:50:42.458Z,99416.69
2023-08-04T01:51:13.881Z,99415.28
2023-08-04T01:51:45.532Z,99416.91
2023-08-04T01:52:17.162Z,99414.16
2023-08-04T01:52:48.609Z,99412.22
2023-08-04T01:53:20.068Z,99417.38
2023-08-04T01:53:51.527Z,99414.47
2023-08-04T01:54:22.975Z,99417.66
2023-08-04T01:54:54.439Z,99414.16
2023-08-04T01:55:25.884Z,99408.22
2023-08-04T01:55:57.321Z,99409.63
2023-08-04T01:56:28.817Z,99415.59
2023-08-04T01:57:00.280Z,99410.44
2023-08-04T01:57:31.672Z,99413.16
2023-08-04T01:58:03.055Z,99408.81
2023-08-04T01:58:34.463Z,99406.41
2023-08-04T01:59:05.899Z,99415.28
2023-08-04T01:59:37.361Z,99411.91
2023-08-04T02:00:08.786Z,99415.88
2023-08-04T02:00:40.197Z,99411.25
2023-08-04T02:01:11.692Z,99408.81
2023-08-04T02:01:43.161Z,99409.00
2023-08-04T02:02:14.649Z,99409.19
2023-08-04T02:02:46.226Z,99407.56
2023-08-04T02:03:17.783Z,99404.34
2023-08-04T02:03:49.236Z,99408.38
2023-08-04T02:04:20.709Z,99408.81
2023-08-04T02:04:52.166Z,99412.84
2023-08-04T02:05:23.602Z,99410.25
2023-08-04T02:05:55.134Z,99410.25
2023-08-04T02:06:26.549Z,99412.66
2023-08-04T02:06:58.026Z,99406.91
2023-08-04T02:07:29.475Z,99410.25
2023-08-04T02:08:01.029Z,99409.44
2023-08-04T02:08:32.474Z,99410.25
2023-08-04T02:09:03.839Z,99408.13
2023-08-04T02:09:35.243Z,99405.09
2023-08-04T02:10:06.704Z,99414.09
2023-08-04T02:10:38.184Z,99411.84
2023-08-04T02:11:09.652Z,99410.53
2023-08-04T02:11:41.085Z,99409.22
2023-08-04T02:12:12.501Z,99416.31
2023-08-04T02:12:43.985Z,99409.22
2023-08-04T02:13:15.416Z,99400.75
2023-08-04T02:13:46.876Z,99404.78
2023-08-04T02:14:18.309Z,99407.81
2023-08-04T02:14:49.715Z,99408.63
2023-08-04T02:15:21.194Z,99408.00
2023-08-04T02:15:52.672Z,99407.69
2023-08-04T02:16:24.088Z,99415.69
2023-08-04T02:16:55.579Z,99414.28
2023-08-04T02:17:27.043Z,99417.50
2023-08-04T02:17:58.513Z,99413.16
2023-08-04T02:18:29.974Z,99416.00
2023-08-04T02:19:01.350Z,99416.00
2023-08-04T02:19:32.789Z,99418.22
2023-08-04T02:20:04.276Z,99414.88
2023-08-04T02:20:35.699Z,99415.19
2023-08-04T02:21:07.126Z,99410.03
2023-08-04T02:21:38.602Z,99417.13
2023-08-04T02:22:10.152Z,99409.22
2023-08-04T02:22:41.717Z,99410.53
2023-08-04T02:23:13.146Z,99410.84
2023-08-04T02:23:44.626Z,99415.50
2023-08-04T02:24:16.068Z,99419.84
2023-08-04T02:24:47.498Z,99415.50
2023-08-04T02:25:18.903Z,99410.84
2023-08-04T02:25:50.453Z,99416.13
2023-08-04T02:26:21.846Z,99412.28
2023-08-04T02:26:53.271Z,99413.59
2023-08-04T02:27:24.686Z,99411.16
2023-08-04T02:27:56.135Z,99416.50
2023-08-04T02:28:27.542Z,99407.81
2023-08-04T02:28:59.021Z,99413.78
2023-08-04T02:29:30.416Z,99411.03
2023-08-04T02:30:01.915Z,99415.38
2023-08-04T02:30:33.465Z,99410.75
2023-08-04T02:31:04.958Z,99415.09
2023-08-04T02:31:36.407Z,99414.94
2023-08-04T02:32:07.904Z,99411.44
2023-08-04T02:32:39.312Z,99413.03
2023-08-04T02:33:11.037Z,99411.44
2023-08-04T02:33:42.648Z,99404.47
2023-08-04T02:34:14.156Z,99409.94
2023-08-04T02:34:45.662Z,99417.81
2023-08-04T02:35:17.087Z,99420.75
2023-08-04T02:35:48.513Z,99417.81
2023-08-04T02:36:19.914Z,99415.69
2023-08-04T02:36:51.448Z,99414.78
2023-08-04T02:37:22.882Z,99422.97
2023-08-04T02:37:54.419Z,99416.69
2023-08-04T02:38:25.853Z,99418.13
2023-08-04T02:38:57.279Z,99417.31
2023-08-04T02:39:28.701Z,99418.94
2023-08-04T02:40:00.165Z,99420.34
2023-08-04T02:40:31.597Z,99417.31
2023-08-04T02:41:03.034Z,99412.97
2023-08-04T02:41:34.517Z,99414.88
2023-08-04T02:42:05.985Z,99415.38
2023-08-04T02:42:37.428Z,99419.22
2023-08-04T02:43:08.884Z,99420.34
2023-08-04T02:43:40.259Z,99420.34
2023-08-04T02:44:11.848Z,99415.88
2023-08-04T02:44:43.234Z,99418.63
2023-08-04T02:45:15.034Z,99415.09
2023-08-04T02:45:47.078Z,99422.66
2023-08-04T02:46:18.517Z,99417.50
2023-08-04T02:46:49.933Z,99418.94
2023-08-04T02:47:21.413Z,99413.34
2023-08-04T02:47:52.885Z,99425.38
2023-08-04T02:48:24.295Z,99422.34
2023-08-04T02:48:55.744Z,99420.25
2023-08-04T02:49:27.159Z,99421.16
2023-08-04T02:49:58.637Z,99419.66
2023-08-04T02:50:30.160Z,99422.69
2023-08-04T02:51:01.632Z,99412.56
2023-08-04T02:51:33.137Z,99423.19
2023-08-04T02:52:04.585Z,99423.78
2023-08-04T02:52:36.112Z,99423.50
2023-08-04T02:53:07.547Z,99427.03
2023-08-04T02:53:38.999Z,99426.41
2023-08-04T02:54:10.434Z,99422.06
2023-08-04T02:54:41.873Z,99424.00
2023-08-04T02:55:13.347Z,99422.19
2023-08-04T02:55:44.777Z,99419.44
2023-08-04T02:56:16.215Z,99426.03
2023-08-04T02:56:47.654Z,99428.25
2023-08-04T02:57:19.120Z,99424.22
2023-08-04T02:57:50.688Z,99435.13
2023-08-04T02:58:22.128Z,99434.81
2023-08-04T02:58:53.590Z,99435.31
2023-08-04T02:59:25.055Z,99429.88
2023-08-04T02:59:56.500Z,99430.97
2023-08-04T03:00:27.999Z,99430.16
2023-08-04T03:00:59.516Z,99429.88
2023-08-04T03:01:31.103Z,99435.81
2023-08-04T03:02:02.614Z,99432.59
2023-08-04T03:02:34.177Z,99429.88
2023-08-04T03:03:05.860Z,99437.53
2023-08-04T03:03:37.300Z,99432.09
2023-08-04T03:04:08.708Z,99434.31
2023-08-04T03:04:40.118Z,99427.44
2023-08-04T03:05:11.569Z,99430.16
2023-08-04T03:05:43.018Z,99435.63
2023-08-04T03:06:14.474Z,99436.13
2023-08-04T03:06:45.923Z,99431.47
2023-08-04T03:07:17.322Z,99436.13
2023-08-04T03:07:48.740Z,99434.22
2023-08-04T03:08:20.209Z,99434.22
2023-08-04T03:08:51.672Z,99437.75
2023-08-04T03:09:23.113Z,99434.50
2023-08-04T03:09:54.519Z,99438.84
2023-08-04T03:10:25.995Z,99435.81
2023-08-04T03:10:57.477Z,99442.91
2023-08-04T03:11:28.914Z,99440.28
2023-08-04T03:12:00.320Z,99439.97
2023-08-04T03:12:31.738Z,99449.25
2023-08-04T03:13:03.186Z,99444.63
2023-08-04T03:13:34.628Z,99446.84
2023-08-04T03:14:06.114Z,99444.13
2023-08-04T03:14:37.512Z,99448.47
2023-08-04T03:15:08.978Z,99444.91
2023-08-04T03:15:40.493Z,99446.84
2023-08-04T03:16:11.947Z,99443.00
2023-08-04T03:16:43.447Z,99446.03
2023-08-04T03:17:15.027Z,99447.44
2023-08-04T03:17:46.530Z,99446.84
2023-08-04T03:18:17.969Z,99449.25
2023-08-04T03:18:49.365Z,99443.00
2023-08-04T03:19:20.799Z,99448.75
2023-08-04T03:19:52.277Z,99450.69
2023-08-04T03:20:23.761Z,99449.56
2023-08-04T03:20:55.191Z,99450.38
2023-08-04T03:21:26.752Z,99441.38
2023-08-04T03:21:58.131Z,99456.44
2023-08-04T03:22:29.529Z,99454.53
2023-08-04T03:23:01.001Z,99458.38
2023-08-04T03:23:32.464Z,99453.91
2023-08-04T03:24:03.878Z,99451.78
2023-08-04T03:24:35.329Z,99454.53
2023-08-04T03:25:06.757Z,99447.44
2023-08-04T03:25:38.197Z,99456.75
2023-08-04T03:26:09.584Z,99459.47
2023-08-04T03:26:41.186Z,99456.75
2023-08-04T03:27:12.669Z,99459.47
2023-08-04T03:27:44.138Z,99463.81
2023-08-04T03:28:15.740Z,99452.09
2023-08-04T03:28:47.295Z,99458.38
2023-08-04T03:29:18.789Z,99456.75
2023-08-04T03:29:50.432Z,99462.19
2023-08-04T03:30:22.024Z,99460.59
2023-08-04T03:30:53.610Z,99460.59
2023-08-04T03:31:25.167Z,99462.81
2023-08-04T03:31:56.723Z,99458.66
2023-08-04T03:32:28.284Z,99459.97
2023-08-04T03:32:59.810Z,99460.28
2023-08-04T03:33:31.446Z,99461.69
2023-08-04T03:34:02.946Z,99460.88
2023-08-04T03:34:34.458Z,99454.81
2023-08-04T03:35:05.848Z,99456.44
2023-08-04T03:35:37.337Z,99458.88
2023-08-04T03:36:08.761Z,99457.56
2023-08-04T03:36:40.252Z,99458.56
2023-08-04T03:37:11.660Z,99467.88
2023-08-04T03:37:43.102Z,99458.38
2023-08-04T03:38:14.569Z,99460.78
2023-08-04T03:38:45.978Z,99461.09
2023-08-04T03:39:17.408Z,99460.47
2023-08-04T03:39:49.041Z,99459.66
2023-08-04T03:40:20.422Z,99461.09
2023-08-04T03:40:51.885Z,99466.53
2023-08-04T03:41:23.305Z,99463.81
2023-08-04T03:41:54.764Z,99462.50
2023-08-04T03:42:26.210Z,99462.81
2023-08-04T03:42:57.604Z,99453.81
2023-08-04T03:43:29.007Z,99465.13
2023-08-04T03:44:00.426Z,99461.28
2023-08-04T03:44:31.861Z,99466.44
2023-08-04T03:45:03.368Z,99460.78
2023-08-04T03:45:34.913Z,99463.00
2023-08-04T03:46:06.373Z,99467.56
2023-08-04T03:46:37.874Z,99465.75
2023-08-04T03:47:09.328Z,99470.91
2023-08-04T03:47:40.840Z,99467.06
2023-08-04T03:48:12.339Z,99469.88
2023-08-04T03:48:43.730Z,99465.53
2023-08-04T03:49:15.227Z,99467.47
2023-08-04T03:49:46.644Z,99459.28
2023-08-04T03:50:18.217Z,99467.75
2023-08-04T03:50:49.646Z,99468.25
2023-08-04T03:51:21.082Z,99473.72
2023-08-04T03:51:52.541Z,99471.50
2023-08-04T03:52:23.952Z,99476.97
2023-08-04T03:52:55.421Z,99472.00
2023-08-04T03:53:26.812Z,99475.53
2023-08-04T03:53:58.302Z,99469.28
2023-08-04T03:54:29.716Z,99480.50
2023-08-04T03:55:01.149Z,99470.91
2023-08-04T03:55:32.603Z,99473.13
2023-08-04T03:56:04.050Z,99476.84
2023-08-04T03:56:35.498Z,99476.97
2023-08-04T03:57:06.964Z,99471.50
2023-08-04T03:57:38.433Z,99476.16
2023-08-04T03:58:09.782Z,99475.63
2023-08-04T03:58:41.223Z,99477.47
2023-08-04T03:59:12.677Z,99481.59
2023-08-04T03:59:44.105Z,99475.84
2023-08-04T04:00:15.549Z,99476.16
2023-08-04T04:00:46.982Z,99481.59
2023-08-04T04:01:18.606Z,99473.72
2023-08-04T04:01:50.597Z,99479.97
2023-08-04T04:02:22.393Z,99481.59
2023-08-04T04:02:53.882Z,99479.19
2023-08-04T04:03:25.322Z,99485.13
2023-08-04T04:03:56.787Z,99478.06
2023-08-04T04:04:28.319Z,99487.88
2023-08-04T04:04:59.748Z,99474.72
2023-08-04T04:05:31.192Z,99481.59
2023-08-04T04:06:02.646Z,99483.00
2023-08-04T04:06:34.216Z,99477.06
2023-08-04T04:07:05.671Z,99479.19
2023-08-04T04:07:37.089Z,99482.72
2023-08-04T04:08:08.480Z,99483.00
2023-08-04T04:08:39.871Z,99482.50
2023-08-04T04:09:11.285Z,99485.44
2023-08-04T04:09:42.720Z,99481.69
2023-08-04T04:10:14.183Z,99482.50
2023-08-04T04:10:45.671Z,99486.34
2023-08-04T04:11:17.147Z,99479.47
2023-08-04T04:11:48.987Z,99482.22
2023-08-04T04:12:20.672Z,99482.72
2023-08-04T04:12:52.090Z,99477.06
2023-08-04T04:13:23.553Z,99486.03
2023-08-04T04:13:55.002Z,99480.28
2023-08-04T04:14:26.423Z,99486.84
2023-08-04T04:14:57.838Z,99484.13
2023-08-04T04:15:29.276Z,99484.63
2023-08-04T04:16:00.733Z,99486.34
2023-08-04T04:16:32.228Z,99484.44
2023-08-04T04:17:03.679Z,99484.94
2023-08-04T04:17:35.112Z,99488.78
2023-08-04T04:18:06.600Z,99488.78
2023-08-04T04:18:38.066Z,99492.31
2023-08-04T04:19:09.494Z,99492.31
2023-08-04T04:19:40.953Z,99490.41
2023-08-04T04:20:12.357Z,99487.66
2023-08-04T04:20:43.853Z,99489.06
2023-08-04T04:21:15.361Z,99486.84
2023-08-04T04:21:47.030Z,99488.06
2023-08-04T04:22:18.622Z,99485.34
2023-08-04T04:22:50.028Z,99483.13
2023-08-04T04:23:21.813Z,99482.59
2023-08-04T04:23:53.226Z,99486.66
2023-08-04T04:24:24.635Z,99481.19
2023-08-04T04:24:56.053Z,99485.84
2023-08-04T04:25:27.852Z,99483.41
2023-08-04T04:25:59.297Z,99484.22
2023-08-04T04:26:30.736Z,99483.94
2023-08-04T04:27:02.141Z,99485.84
2023-08-04T04:27:33.537Z,99488.88
2023-08-04T04:28:04.982Z,99483.13
2023-08-04T04:28:36.431Z,99490.50
2023-08-04T04:29:07.854Z,99488.56
2023-08-04T04:29:39.379Z,99497.88
2023-08-04T04:30:10.860Z,99495.44
2023-08-04T04:30:42.329Z,99485.03
2023-08-04T04:31:13.897Z,99481.50
2023-08-04T04:31:45.829Z,99493.53
2023-08-04T04:32:17.518Z,99488.56
2023-08-04T04:32:48.970Z,99482.31
2023-08-04T04:33:22.611Z,99492.09
2023-08-04T04:33:55.068Z,99487.47
2023-08-04T04:34:26.630Z,99492.91
2023-08-04T04:34:58.109Z,99501.41
2023-08-04T04:35:29.618Z,99501.09
2023-08-04T04:36:00.979Z,99495.94
2023-08-04T04:36:32.500Z,99501.72
2023-08-04T04:37:03.907Z,99500.06
2023-08-04T04:37:35.348Z,99497.56
2023-08-04T04:38:06.821Z,99501.91
2023-08-04T04:38:38.234Z,99506.84
2023-08-04T04:39:09.743Z,99502.72
2023-08-04T04:39:41.217Z,99502.50
2023-08-04T04:40:12.658Z,99508.78
2023-08-04T04:40:44.081Z,99506.25
2023-08-04T04:41:15.470Z,99508.78
2023-08-04T04:41:47.175Z,99507.97
2023-08-04T04:42:18.770Z,99504.94
2023-08-04T04:42:50.333Z,99509.59
2023-08-04T04:43:21.695Z,99512.88
2023-08-04T04:43:53.154Z,99505.50
2023-08-04T04:44:24.660Z,99510.47
2023-08-04T04:44:56.045Z,99510.09
2023-08-04T04:45:27.499Z,99511.19
2023-08-04T04:45:58.958Z,99511.50
2023-08-04T04:46:30.471Z,99513.69
2023-08-04T04:47:01.965Z,99519.69
2023-08-04T04:47:33.412Z,99513.69
2023-08-04T04:48:04.882Z,99518.13
2023-08-04T04:48:36.402Z,99517.03
2023-08-04T04:49:07.877Z,99517.03
2023-08-04T04:49:39.343Z,99522.19
2023-08-04T04:50:10.824Z,99519.44
2023-08-04T04:50:42.296Z,99520.25
2023-08-04T04:51:13.742Z,99519.69
2023-08-04T04:51:45.536Z,99516.16
2023-08-04T04:52:17.298Z,99518.34
2023-08-04T04:52:48.743Z,99523.00
2023-08-04T04:53:20.200Z,99525.44
2023-08-04T04:53:51.710Z,99518.34
2023-08-04T04:54:23.207Z,99524.59
2023-08-04T04:54:54.664Z,99521.88
2023-08-04T04:55:26.051Z,99518.66
2023-08-04T04:55:57.597Z,99525.44
2023-08-04T04:56:29.011Z,99517.25
2023-08-04T04:57:00.435Z,99517.78
2023-08-04T04:57:31.934Z,99520.00
2023-08-04T04:58:03.408Z,99518.66
2023-08-04T04:58:34.872Z,99521.97
2023-08-04T04:59:06.295Z,99519.44
2023-08-04T04:59:37.787Z,99520.56
2023-08-04T05:00:09.202Z,99519.75
2023-08-04T05:00:40.622Z,99522.19
2023-08-04T05:01:12.093Z,99521.59
2023-08-04T05:01:43.586Z,99515.53
2023-08-04T05:02:15.143Z,99523.78
2023-08-04T05:02:46.607Z,99528.44
2023-08-04T05:03:18.322Z,99527.34
2023-08-04T05:03:49.858Z,99524.59
2023-08-04T05:04:21.580Z,99526.81
2023-08-04T05:04:53.010Z,99527.88
2023-08-04T05:05:24.491Z,99522.41
2023-08-04T05:05:55.924Z,99524.03
2023-08-04T05:06:30.413Z,99521.88
2023-08-04T05:07:02.466Z,99528.44
2023-08-04T05:07:33.961Z,99533.63
2023-08-04T05:08:05.401Z,99522.19
2023-08-04T05:08:36.860Z,99527.34
2023-08-04T05:09:08.374Z,99525.22
2023-08-04T05:09:39.759Z,99531.78
2023-08-04T05:10:11.224Z,99524.09
2023-08-04T05:10:42.675Z,99524.41
2023-08-04T05:11:14.137Z,99528.75
2023-08-04T05:11:45.963Z,99527.13
2023-08-04T05:12:17.675Z,99525.22
2023-08-04T05:12:49.125Z,99526.81
2023-08-04T05:13:20.557Z,99526.25
2023-08-04T05:13:51.961Z,99533.09
2023-08-04T05:14:23.418Z,99528.53
2023-08-04T05:14:54.797Z,99528.25
2023-08-04T05:15:26.296Z,99532.06
2023-08-04T05:15:57.893Z,99530.47
2023-08-04T05:16:29.342Z,99528.84
2023-08-04T05:17:00.810Z,99529.13
2023-08-04T05:17:32.339Z,99531.25
2023-08-04T05:18:03.773Z,99527.44
2023-08-04T05:18:35.257Z,99525.81
2023-08-04T05:19:06.679Z,99530.06
2023-08-04T05:19:38.109Z,99527.88
2023-08-04T05:20:09.617Z,99526.81
2023-08-04T05:20:41.090Z,99535.00
2023-08-04T05:21:12.548Z,99527.63
2023-08-04T05:21:44.051Z,99527.13
2023-08-04T05:22:15.457Z,99530.66
2023-08-04T05:22:46.956Z,99529.25
2023-08-04T05:23:18.376Z,99525.72
2023-08-04T05:23:49.790Z,99531.97
2023-08-04T05:24:21.328Z,99533.63
2023-08-04T05:25:05.280Z,99530.66
2023-08-04T05:25:42.265Z,99523.59
2023-08-04T05:26:13.663Z,99533.69
2023-08-04T05:26:45.165Z,99527.06
2023-08-04T05:27:16.600Z,99526.66
2023-08-04T05:27:48.156Z,99532.94
2023-08-04T05:28:19.597Z,99540.00
2023-08-04T05:28:51.034Z,99539.19
2023-08-04T05:29:22.442Z,99531.00
2023-08-04T05:29:53.821Z,99538.38
2023-08-04T05:30:25.250Z,99540.91
2023-08-04T05:30:56.712Z,99534.66
2023-08-04T05:31:28.612Z,99533.84
2023-08-04T05:32:00.095Z,99542.03
2023-08-04T05:32:31.611Z,99539.59
2023-08-04T05:33:03.154Z,99540.81
2023-08-04T05:33:34.619Z,99537.88
2023-08-04T05:34:06.074Z,99543.03
2023-08-04T05:34:37.515Z,99544.66
2023-08-04T05:35:09.003Z,99542.44
2023-08-04T05:35:40.476Z,99541.72
2023-08-04T05:36:11.992Z,99534.94
2023-08-04T05:36:43.443Z,99543.13
2023-08-04T05:37:14.881Z,99538.78
2023-08-04T05:37:46.254Z,99542.03
2023-08-04T05:38:17.748Z,99541.50
2023-08-04T05:38:49.170Z,99545.03
2023-08-04T05:39:20.572Z,99541.81
2023-08-04T05:39:51.986Z,99544.75
2023-08-04T05:40:23.463Z,99548.06
2023-08-04T05:40:55.047Z,99543.69
2023-08-04T05:41:26.456Z,99542.31
2023-08-04T05:41:57.981Z,99551.81
2023-08-04T05:42:29.455Z,99544.25
2023-08-04T05:43:00.874Z,99539.09
2023-08-04T05:43:32.299Z,99539.59
2023-08-04T05:44:03.754Z,99545.84
2023-08-04T05:44:35.149Z,99547.78
2023-08-04T05:45:06.627Z,99546.97
2023-08-04T05:45:38.080Z,99548.88
2023-08-04T05:46:09.712Z,99552.94
2023-08-04T05:46:41.133Z,99545.84
2023-08-04T05:47:12.582Z,99545.03
2023-08-04T05:47:44.040Z,99549.69
2023-08-04T05:48:15.506Z,99552.72
2023-08-04T05:48:46.950Z,99547.84
2023-08-04T05:49:18.392Z,99548.66
2023-08-04T05:49:49.826Z,99549.25
2023-08-04T05:50:21.442Z,99550.88
2023-08-04T05:50:52.956Z,99552.47
2023-08-04T05:51:24.415Z,99540.16
2023-08-04T05:51:55.837Z,99552.19
2023-08-04T05:52:27.274Z,99547.53
2023-08-04T05:52:58.765Z,99553.28
2023-08-04T05:53:30.310Z,99551.88
2023-08-04T05:54:01.828Z,99549.75
2023-08-04T05:54:33.249Z,99551.06
2023-08-04T05:55:04.817Z,99551.06
2023-08-04T05:55:36.260Z,99545.09
2023-08-04T05:56:07.721Z,99556.53
2023-08-04T05:56:39.162Z,99560.06
2023-08-04T05:57:10.616Z,99549.16
2023-08-04T05:57:42.054Z,99557.34
2023-08-04T05:58:13.435Z,99558.44
2023-08-04T05:58:44.898Z,99552.72
2023-08-04T05:59:16.374Z,99551.63
2023-08-04T05:59:47.799Z,99553.22
2023-08-04T06:00:19.303Z,99553.13
2023-08-04T06:00:50.743Z,99562.44
2023-08-04T06:01:22.264Z,99558.78
2023-08-04T06:01:53.693Z,99560.31
2023-08-04T06:02:25.185Z,99563.84
2023-08-04T06:02:56.659Z,99560.50
2023-08-04T06:03:28.162Z,99566.47
2023-08-04T06:03:59.706Z,99560.41
2023-08-04T06:04:31.265Z,99557.28
2023-08-04T06:05:02.714Z,99559.50
2023-08-04T06:05:34.302Z,99561.91
2023-08-04T06:06:05.720Z,99566.28
2023-08-04T06:06:37.196Z,99554.34
2023-08-04T06:07:08.588Z,99559.00
2023-08-04T06:07:40.031Z,99558.19
2023-08-04T06:08:11.500Z,99567.69
2023-08-04T06:08:42.972Z,99565.00
2023-08-04T06:09:14.418Z,99569.34
2023-08-04T06:09:45.859Z,99565.25
2023-08-04T06:10:17.369Z,99565.53